Arcola, Virginia
Current Conditions -  °F | °C
As of 5:52 PM on Friday 28 Nov 2014 (Local Time) from KIAD Reporting Station
Few Clouds Few Clouds  
Wind Chill: 30°   Ceiling: Unl
Heat Index: 30°   Visibility: 10mi
Dew Point: 19°   Wind: 3mph
Humidity: 64%   Direction: 290°WNW
Pressure: 30.28"   Gusts: NA
Location:  38.95°N, 77.53°W
Report Text: KIAD 282252Z 29003KT 10SM FEW100 M01/M07 A3028 RMK AO2 SLP256 T10111072
Loading
Personal Weather Stations






























Interactive Weather Map New forecast layout! Learn more

10-Day Weather Forecast

Advertisements
Track Severe Weather on mobile